sensor_id;sensor_type;location;lat;lon;timestamp;P1;durP1;ratioP1;P2;durP2;ratioP2
70757;SDS011;59316;52.964;7.102;2023-03-15T00:05:17;4.47;;;1.67;;
70757;SDS011;59316;52.964;7.102;2023-03-15T00:10:41;6.35;;;1.80;;
70757;SDS011;59316;52.964;7.102;2023-03-15T00:16:05;11.10;;;2.03;;
70757;SDS011;59316;52.964;7.102;2023-03-15T00:21:27;5.00;;;1.30;;
70757;SDS011;59316;52.964;7.102;2023-03-15T00:26:48;12.07;;;1.73;;
70757;SDS011;59316;52.964;7.102;2023-03-15T00:32:09;6.55;;;1.33;;
70757;SDS011;59316;52.964;7.102;2023-03-15T00:37:31;3.03;;;1.20;;
70757;SDS011;59316;52.964;7.102;2023-03-15T00:42:53;8.77;;;1.83;;
70757;SDS011;59316;52.964;7.102;2023-03-15T00:48:14;6.53;;;1.52;;
70757;SDS011;59316;52.964;7.102;2023-03-15T00:53:36;7.53;;;1.50;;
70757;SDS011;59316;52.964;7.102;2023-03-15T00:59:00;4.50;;;1.40;;
70757;SDS011;59316;52.964;7.102;2023-03-15T01:04:23;5.20;;;1.55;;
70757;SDS011;59316;52.964;7.102;2023-03-15T01:09:44;6.80;;;1.52;;
70757;SDS011;59316;52.964;7.102;2023-03-15T01:15:08;6.20;;;1.25;;
70757;SDS011;59316;52.964;7.102;2023-03-15T01:20:32;7.57;;;1.30;;
70757;SDS011;59316;52.964;7.102;2023-03-15T01:25:54;4.07;;;1.42;;
70757;SDS011;59316;52.964;7.102;2023-03-15T01:36:48;6.40;;;1.40;;
70757;SDS011;59316;52.964;7.102;2023-03-15T01:42:10;6.78;;;1.45;;
70757;SDS011;59316;52.964;7.102;2023-03-15T01:47:32;7.93;;;1.00;;
70757;SDS011;59316;52.964;7.102;2023-03-15T01:52:54;2.47;;;0.90;;
70757;SDS011;59316;52.964;7.102;2023-03-15T01:58:16;4.97;;;1.10;;
70757;SDS011;59316;52.964;7.102;2023-03-15T02:03:39;8.15;;;1.10;;
70757;SDS011;59316;52.964;7.102;2023-03-15T02:09:06;6.97;;;1.40;;
70757;SDS011;59316;52.964;7.102;2023-03-15T02:14:32;11.88;;;1.17;;
70757;SDS011;59316;52.964;7.102;2023-03-15T02:26:12;2.78;;;1.08;;
70757;SDS011;59316;52.964;7.102;2023-03-15T02:31:51;6.85;;;1.05;;
70757;SDS011;59316;52.964;7.102;2023-03-15T02:37:12;5.97;;;0.80;;
70757;SDS011;59316;52.964;7.102;2023-03-15T02:42:34;8.65;;;1.50;;
70757;SDS011;59316;52.964;7.102;2023-03-15T02:47:55;7.43;;;1.17;;
70757;SDS011;59316;52.964;7.102;2023-03-15T02:53:17;7.63;;;1.70;;
70757;SDS011;59316;52.964;7.102;2023-03-15T02:58:39;8.70;;;1.23;;
70757;SDS011;59316;52.964;7.102;2023-03-15T03:04:02;5.28;;;1.00;;
70757;SDS011;59316;52.964;7.102;2023-03-15T03:09:24;5.68;;;0.82;;
70757;SDS011;59316;52.964;7.102;2023-03-15T03:14:46;4.15;;;1.65;;
70757;SDS011;59316;52.964;7.102;2023-03-15T03:20:11;4.28;;;0.90;;
70757;SDS011;59316;52.964;7.102;2023-03-15T03:25:38;5.97;;;0.90;;
70757;SDS011;59316;52.964;7.102;2023-03-15T03:30:59;3.70;;;0.90;;
70757;SDS011;59316;52.964;7.102;2023-03-15T03:36:21;2.38;;;0.85;;
70757;SDS011;59316;52.964;7.102;2023-03-15T03:41:43;5.43;;;0.85;;
70757;SDS011;59316;52.964;7.102;2023-03-15T03:47:06;7.05;;;0.90;;
70757;SDS011;59316;52.964;7.102;2023-03-15T03:52:27;6.10;;;1.23;;
70757;SDS011;59316;52.964;7.102;2023-03-15T03:57:57;12.85;;;1.20;;
70757;SDS011;59316;52.964;7.102;2023-03-15T04:03:37;4.68;;;1.02;;
70757;SDS011;59316;52.964;7.102;2023-03-15T04:09:03;4.13;;;1.02;;
70757;SDS011;59316;52.964;7.102;2023-03-15T04:14:32;3.42;;;1.40;;
70757;SDS011;59316;52.964;7.102;2023-03-15T04:19:54;3.55;;;0.90;;
70757;SDS011;59316;52.964;7.102;2023-03-15T04:25:20;6.93;;;1.05;;
70757;SDS011;59316;52.964;7.102;2023-03-15T04:36:34;8.90;;;0.95;;
70757;SDS011;59316;52.964;7.102;2023-03-15T04:42:01;9.52;;;1.08;;
70757;SDS011;59316;52.964;7.102;2023-03-15T04:47:58;5.32;;;1.08;;
70757;SDS011;59316;52.964;7.102;2023-03-15T04:53:50;5.65;;;1.23;;
70757;SDS011;59316;52.964;7.102;2023-03-15T04:59:40;5.43;;;1.33;;
70757;SDS011;59316;52.964;7.102;2023-03-15T05:05:16;1.88;;;0.77;;
70757;SDS011;59316;52.964;7.102;2023-03-15T05:11:10;8.45;;;1.20;;
70757;SDS011;59316;52.964;7.102;2023-03-15T05:16:51;7.03;;;1.30;;
70757;SDS011;59316;52.964;7.102;2023-03-15T05:22:32;5.03;;;0.70;;
70757;SDS011;59316;52.964;7.102;2023-03-15T05:28:13;7.05;;;1.17;;
70757;SDS011;59316;52.964;7.102;2023-03-15T05:33:54;3.22;;;0.80;;
70757;SDS011;59316;52.964;7.102;2023-03-15T05:39:28;3.63;;;1.10;;
70757;SDS011;59316;52.964;7.102;2023-03-15T05:45:08;4.43;;;0.73;;
70757;SDS011;59316;52.964;7.102;2023-03-15T05:50:50;1.17;;;0.70;;
70757;SDS011;59316;52.964;7.102;2023-03-15T05:56:22;5.80;;;1.02;;
70757;SDS011;59316;52.964;7.102;2023-03-15T06:02:10;11.25;;;1.02;;
70757;SDS011;59316;52.964;7.102;2023-03-15T06:07:43;8.77;;;1.13;;
70757;SDS011;59316;52.964;7.102;2023-03-15T06:13:06;6.28;;;1.33;;
70757;SDS011;59316;52.964;7.102;2023-03-15T06:18:27;13.77;;;1.67;;
70757;SDS011;59316;52.964;7.102;2023-03-15T06:23:49;10.05;;;1.35;;
70757;SDS011;59316;52.964;7.102;2023-03-15T06:29:11;2.08;;;0.85;;
70757;SDS011;59316;52.964;7.102;2023-03-15T06:34:33;5.85;;;1.10;;
70757;SDS011;59316;52.964;7.102;2023-03-15T06:39:55;7.03;;;1.40;;
70757;SDS011;59316;52.964;7.102;2023-03-15T06:45:17;11.38;;;1.67;;
70757;SDS011;59316;52.964;7.102;2023-03-15T06:50:39;9.98;;;1.48;;
70757;SDS011;59316;52.964;7.102;2023-03-15T06:56:07;7.97;;;1.20;;
70757;SDS011;59316;52.964;7.102;2023-03-15T07:01:29;4.13;;;1.73;;
70757;SDS011;59316;52.964;7.102;2023-03-15T07:06:50;3.75;;;1.00;;
70757;SDS011;59316;52.964;7.102;2023-03-15T07:12:12;3.40;;;0.70;;
70757;SDS011;59316;52.964;7.102;2023-03-15T07:17:33;4.72;;;1.33;;
70757;SDS011;59316;52.964;7.102;2023-03-15T07:22:55;7.32;;;0.90;;
70757;SDS011;59316;52.964;7.102;2023-03-15T07:28:17;5.43;;;1.10;;
70757;SDS011;59316;52.964;7.102;2023-03-15T07:33:38;6.20;;;1.40;;
70757;SDS011;59316;52.964;7.102;2023-03-15T07:39:00;8.63;;;1.80;;
70757;SDS011;59316;52.964;7.102;2023-03-15T07:44:22;5.25;;;1.40;;
70757;SDS011;59316;52.964;7.102;2023-03-15T07:49:43;7.68;;;1.48;;
70757;SDS011;59316;52.964;7.102;2023-03-15T07:55:05;2.85;;;1.10;;
70757;SDS011;59316;52.964;7.102;2023-03-15T08:00:26;5.18;;;1.33;;
70757;SDS011;59316;52.964;7.102;2023-03-15T08:05:49;5.95;;;1.10;;
70757;SDS011;59316;52.964;7.102;2023-03-15T08:11:11;4.45;;;0.80;;
70757;SDS011;59316;52.964;7.102;2023-03-15T08:16:33;3.40;;;1.10;;
70757;SDS011;59316;52.964;7.102;2023-03-15T08:21:54;6.07;;;1.30;;
70757;SDS011;59316;52.964;7.102;2023-03-15T08:27:16;8.82;;;1.30;;
70757;SDS011;59316;52.964;7.102;2023-03-15T08:32:38;4.65;;;1.38;;
70757;SDS011;59316;52.964;7.102;2023-03-15T08:38:00;5.38;;;1.20;;
70757;SDS011;59316;52.964;7.102;2023-03-15T08:43:22;6.00;;;1.05;;
70757;SDS011;59316;52.964;7.102;2023-03-15T08:48:43;8.32;;;1.50;;
70757;SDS011;59316;52.964;7.102;2023-03-15T08:54:05;7.45;;;1.25;;
70757;SDS011;59316;52.964;7.102;2023-03-15T08:59:26;6.85;;;0.93;;
70757;SDS011;59316;52.964;7.102;2023-03-15T09:04:51;8.75;;;1.27;;
70757;SDS011;59316;52.964;7.102;2023-03-15T09:10:14;7.78;;;1.45;;
70757;SDS011;59316;52.964;7.102;2023-03-15T09:15:37;7.50;;;0.82;;
70757;SDS011;59316;52.964;7.102;2023-03-15T09:20:58;7.47;;;1.38;;
70757;SDS011;59316;52.964;7.102;2023-03-15T09:26:20;4.72;;;1.10;;
70757;SDS011;59316;52.964;7.102;2023-03-15T09:31:41;6.28;;;1.15;;
70757;SDS011;59316;52.964;7.102;2023-03-15T09:37:02;6.95;;;1.30;;
70757;SDS011;59316;52.964;7.102;2023-03-15T09:42:28;4.95;;;1.00;;
70757;SDS011;59316;52.964;7.102;2023-03-15T09:48:12;3.58;;;0.95;;
70757;SDS011;59316;52.964;7.102;2023-03-15T09:59:14;4.85;;;1.30;;
70757;SDS011;59316;52.964;7.102;2023-03-15T10:04:36;8.32;;;1.30;;
70757;SDS011;59316;52.964;7.102;2023-03-15T10:09:58;3.47;;;1.00;;
70757;SDS011;59316;52.964;7.102;2023-03-15T10:21:37;4.18;;;1.00;;
70757;SDS011;59316;52.964;7.102;2023-03-15T10:38:48;3.53;;;0.82;;
70757;SDS011;59316;52.964;7.102;2023-03-15T10:44:14;2.60;;;0.88;;
70757;SDS011;59316;52.964;7.102;2023-03-15T10:49:42;4.00;;;0.80;;
70757;SDS011;59316;52.964;7.102;2023-03-15T10:55:05;3.35;;;1.00;;
70757;SDS011;59316;52.964;7.102;2023-03-15T11:00:32;4.90;;;0.90;;
70757;SDS011;59316;52.964;7.102;2023-03-15T11:05:56;4.13;;;0.68;;
70757;SDS011;59316;52.964;7.102;2023-03-15T11:11:19;4.38;;;1.08;;
70757;SDS011;59316;52.964;7.102;2023-03-15T11:16:40;2.63;;;0.80;;
70757;SDS011;59316;52.964;7.102;2023-03-15T11:22:02;4.97;;;0.80;;
70757;SDS011;59316;52.964;7.102;2023-03-15T11:27:24;1.65;;;0.75;;
70757;SDS011;59316;52.964;7.102;2023-03-15T11:32:47;5.70;;;0.90;;
70757;SDS011;59316;52.964;7.102;2023-03-15T11:38:11;2.40;;;0.95;;
70757;SDS011;59316;52.964;7.102;2023-03-15T11:44:04;4.65;;;0.95;;
70757;SDS011;59316;52.964;7.102;2023-03-15T11:49:41;2.17;;;0.70;;
70757;SDS011;59316;52.964;7.102;2023-03-15T11:55:14;2.30;;;0.85;;
70757;SDS011;59316;52.964;7.102;2023-03-15T12:11:37;3.22;;;0.77;;
70757;SDS011;59316;52.964;7.102;2023-03-15T12:22:51;3.75;;;0.98;;
70757;SDS011;59316;52.964;7.102;2023-03-15T12:28:41;5.03;;;0.60;;
70757;SDS011;59316;52.964;7.102;2023-03-15T12:45:36;4.00;;;0.70;;
70757;SDS011;59316;52.964;7.102;2023-03-15T12:51:00;2.03;;;0.63;;
70757;SDS011;59316;52.964;7.102;2023-03-15T13:08:04;6.22;;;1.02;;
70757;SDS011;59316;52.964;7.102;2023-03-15T13:19:26;3.00;;;0.85;;
70757;SDS011;59316;52.964;7.102;2023-03-15T13:30:47;1.75;;;0.85;;
70757;SDS011;59316;52.964;7.102;2023-03-15T13:36:13;3.92;;;0.70;;
70757;SDS011;59316;52.964;7.102;2023-03-15T13:41:37;2.28;;;0.65;;
70757;SDS011;59316;52.964;7.102;2023-03-15T13:46:59;2.05;;;0.50;;
70757;SDS011;59316;52.964;7.102;2023-03-15T13:52:21;3.17;;;0.95;;
70757;SDS011;59316;52.964;7.102;2023-03-15T13:57:42;4.53;;;0.70;;
70757;SDS011;59316;52.964;7.102;2023-03-15T14:03:09;1.33;;;0.85;;
70757;SDS011;59316;52.964;7.102;2023-03-15T14:08:40;2.35;;;0.75;;
70757;SDS011;59316;52.964;7.102;2023-03-15T14:14:01;3.58;;;0.95;;
70757;SDS011;59316;52.964;7.102;2023-03-15T14:19:50;2.17;;;0.70;;
70757;SDS011;59316;52.964;7.102;2023-03-15T14:25:20;2.42;;;0.60;;
70757;SDS011;59316;52.964;7.102;2023-03-15T14:30:42;2.33;;;0.63;;
70757;SDS011;59316;52.964;7.102;2023-03-15T14:36:21;2.45;;;0.90;;
70757;SDS011;59316;52.964;7.102;2023-03-15T14:42:03;3.30;;;0.70;;
70757;SDS011;59316;52.964;7.102;2023-03-15T14:47:26;2.33;;;0.65;;
70757;SDS011;59316;52.964;7.102;2023-03-15T14:52:48;3.63;;;0.88;;
70757;SDS011;59316;52.964;7.102;2023-03-15T14:58:18;2.95;;;0.70;;
70757;SDS011;59316;52.964;7.102;2023-03-15T15:03:42;2.80;;;0.63;;
70757;SDS011;59316;52.964;7.102;2023-03-15T15:09:09;2.97;;;1.00;;
70757;SDS011;59316;52.964;7.102;2023-03-15T15:14:31;1.95;;;0.70;;
70757;SDS011;59316;52.964;7.102;2023-03-15T15:19:52;2.65;;;1.20;;
70757;SDS011;59316;52.964;7.102;2023-03-15T15:25:18;1.42;;;0.70;;
70757;SDS011;59316;52.964;7.102;2023-03-15T15:30:43;3.00;;;0.70;;
70757;SDS011;59316;52.964;7.102;2023-03-15T15:36:05;2.72;;;0.70;;
70757;SDS011;59316;52.964;7.102;2023-03-15T15:41:34;1.50;;;0.60;;
70757;SDS011;59316;52.964;7.102;2023-03-15T15:46:55;2.72;;;0.93;;
70757;SDS011;59316;52.964;7.102;2023-03-15T15:52:17;3.55;;;0.77;;
70757;SDS011;59316;52.964;7.102;2023-03-15T15:57:39;3.15;;;0.80;;
70757;SDS011;59316;52.964;7.102;2023-03-15T16:03:01;3.15;;;1.10;;
70757;SDS011;59316;52.964;7.102;2023-03-15T16:08:23;4.72;;;1.00;;
70757;SDS011;59316;52.964;7.102;2023-03-15T16:13:45;4.20;;;0.80;;
70757;SDS011;59316;52.964;7.102;2023-03-15T16:19:10;6.30;;;1.05;;
70757;SDS011;59316;52.964;7.102;2023-03-15T16:24:31;2.28;;;0.60;;
70757;SDS011;59316;52.964;7.102;2023-03-15T16:29:55;9.13;;;1.17;;
70757;SDS011;59316;52.964;7.102;2023-03-15T16:35:17;3.05;;;1.00;;
70757;SDS011;59316;52.964;7.102;2023-03-15T16:40:38;3.72;;;1.02;;
70757;SDS011;59316;52.964;7.102;2023-03-15T16:46:08;1.23;;;0.60;;
70757;SDS011;59316;52.964;7.102;2023-03-15T16:51:33;3.67;;;0.70;;
70757;SDS011;59316;52.964;7.102;2023-03-15T16:56:56;2.08;;;0.70;;
70757;SDS011;59316;52.964;7.102;2023-03-15T17:02:22;2.50;;;0.80;;
70757;SDS011;59316;52.964;7.102;2023-03-15T17:07:46;5.63;;;0.80;;
70757;SDS011;59316;52.964;7.102;2023-03-15T17:13:12;2.40;;;0.80;;
70757;SDS011;59316;52.964;7.102;2023-03-15T17:18:36;2.75;;;0.63;;
70757;SDS011;59316;52.964;7.102;2023-03-15T17:23:57;4.20;;;1.00;;
70757;SDS011;59316;52.964;7.102;2023-03-15T17:29:19;3.72;;;0.70;;
70757;SDS011;59316;52.964;7.102;2023-03-15T17:34:41;3.05;;;0.80;;
70757;SDS011;59316;52.964;7.102;2023-03-15T17:40:03;1.92;;;0.70;;
70757;SDS011;59316;52.964;7.102;2023-03-15T17:45:33;2.72;;;0.80;;
70757;SDS011;59316;52.964;7.102;2023-03-15T17:50:55;2.70;;;1.10;;
70757;SDS011;59316;52.964;7.102;2023-03-15T17:56:17;5.85;;;1.15;;
70757;SDS011;59316;52.964;7.102;2023-03-15T18:01:41;2.88;;;0.70;;
70757;SDS011;59316;52.964;7.102;2023-03-15T18:07:05;2.60;;;0.98;;
70757;SDS011;59316;52.964;7.102;2023-03-15T18:12:26;5.10;;;1.00;;
70757;SDS011;59316;52.964;7.102;2023-03-15T18:17:48;2.08;;;0.90;;
70757;SDS011;59316;52.964;7.102;2023-03-15T18:23:11;3.80;;;0.90;;
70757;SDS011;59316;52.964;7.102;2023-03-15T18:28:35;2.80;;;0.93;;
70757;SDS011;59316;52.964;7.102;2023-03-15T18:33:57;1.42;;;0.73;;
70757;SDS011;59316;52.964;7.102;2023-03-15T18:39:18;3.60;;;0.88;;
70757;SDS011;59316;52.964;7.102;2023-03-15T18:44:40;1.95;;;0.80;;
70757;SDS011;59316;52.964;7.102;2023-03-15T18:50:02;4.68;;;1.02;;
70757;SDS011;59316;52.964;7.102;2023-03-15T18:55:30;3.85;;;1.10;;
70757;SDS011;59316;52.964;7.102;2023-03-15T19:00:52;5.00;;;1.83;;
70757;SDS011;59316;52.964;7.102;2023-03-15T19:06:13;2.67;;;0.90;;
70757;SDS011;59316;52.964;7.102;2023-03-15T19:11:35;3.10;;;1.00;;
70757;SDS011;59316;52.964;7.102;2023-03-15T19:16:56;3.50;;;0.93;;
70757;SDS011;59316;52.964;7.102;2023-03-15T19:22:18;2.35;;;1.00;;
70757;SDS011;59316;52.964;7.102;2023-03-15T19:27:40;6.28;;;1.20;;
70757;SDS011;59316;52.964;7.102;2023-03-15T19:33:02;2.05;;;0.90;;
70757;SDS011;59316;52.964;7.102;2023-03-15T19:38:24;3.13;;;1.73;;
70757;SDS011;59316;52.964;7.102;2023-03-15T19:43:46;3.35;;;1.50;;
70757;SDS011;59316;52.964;7.102;2023-03-15T19:49:07;5.43;;;1.50;;
70757;SDS011;59316;52.964;7.102;2023-03-15T19:54:29;2.15;;;1.10;;
70757;SDS011;59316;52.964;7.102;2023-03-15T19:59:50;2.83;;;1.20;;
70757;SDS011;59316;52.964;7.102;2023-03-15T20:05:13;6.97;;;1.85;;
70757;SDS011;59316;52.964;7.102;2023-03-15T20:10:37;2.55;;;1.63;;
70757;SDS011;59316;52.964;7.102;2023-03-15T20:15:58;4.93;;;1.85;;
70757;SDS011;59316;52.964;7.102;2023-03-15T20:21:20;7.68;;;1.52;;
70757;SDS011;59316;52.964;7.102;2023-03-15T20:26:42;2.75;;;1.20;;
70757;SDS011;59316;52.964;7.102;2023-03-15T20:32:03;1.35;;;1.00;;
70757;SDS011;59316;52.964;7.102;2023-03-15T20:37:26;3.17;;;1.48;;
70757;SDS011;59316;52.964;7.102;2023-03-15T20:42:49;4.43;;;1.73;;
70757;SDS011;59316;52.964;7.102;2023-03-15T20:48:11;4.10;;;1.70;;
70757;SDS011;59316;52.964;7.102;2023-03-15T20:53:33;3.78;;;1.55;;
70757;SDS011;59316;52.964;7.102;2023-03-15T20:58:55;3.38;;;1.85;;
70757;SDS011;59316;52.964;7.102;2023-03-15T21:04:20;3.67;;;1.55;;
70757;SDS011;59316;52.964;7.102;2023-03-15T21:09:42;2.22;;;1.40;;
70757;SDS011;59316;52.964;7.102;2023-03-15T21:15:04;4.15;;;1.80;;
70757;SDS011;59316;52.964;7.102;2023-03-15T21:20:26;5.30;;;3.08;;
70757;SDS011;59316;52.964;7.102;2023-03-15T21:25:54;6.70;;;2.42;;
70757;SDS011;59316;52.964;7.102;2023-03-15T21:31:18;5.97;;;2.42;;
70757;SDS011;59316;52.964;7.102;2023-03-15T21:36:43;4.40;;;2.40;;
70757;SDS011;59316;52.964;7.102;2023-03-15T21:42:04;8.20;;;2.60;;
70757;SDS011;59316;52.964;7.102;2023-03-15T21:47:27;5.35;;;2.78;;
70757;SDS011;59316;52.964;7.102;2023-03-15T21:52:48;6.70;;;2.70;;
70757;SDS011;59316;52.964;7.102;2023-03-15T21:58:10;8.10;;;2.72;;
70757;SDS011;59316;52.964;7.102;2023-03-15T22:03:33;5.82;;;3.00;;
70757;SDS011;59316;52.964;7.102;2023-03-15T22:08:55;7.35;;;2.75;;
70757;SDS011;59316;52.964;7.102;2023-03-15T22:14:17;5.55;;;2.72;;
70757;SDS011;59316;52.964;7.102;2023-03-15T22:19:39;5.07;;;2.35;;
70757;SDS011;59316;52.964;7.102;2023-03-15T22:25:00;9.00;;;2.92;;
70757;SDS011;59316;52.964;7.102;2023-03-15T22:30:22;6.25;;;3.05;;
70757;SDS011;59316;52.964;7.102;2023-03-15T22:35:43;7.03;;;3.40;;
70757;SDS011;59316;52.964;7.102;2023-03-15T22:41:06;7.05;;;2.80;;
70757;SDS011;59316;52.964;7.102;2023-03-15T22:46:29;7.30;;;2.80;;
70757;SDS011;59316;52.964;7.102;2023-03-15T22:51:54;8.27;;;3.13;;
70757;SDS011;59316;52.964;7.102;2023-03-15T22:57:15;8.18;;;3.25;;
70757;SDS011;59316;52.964;7.102;2023-03-15T23:02:37;8.25;;;2.55;;
70757;SDS011;59316;52.964;7.102;2023-03-15T23:08:04;9.95;;;2.92;;
70757;SDS011;59316;52.964;7.102;2023-03-15T23:13:26;6.13;;;2.28;;
70757;SDS011;59316;52.964;7.102;2023-03-15T23:18:47;4.88;;;2.60;;
70757;SDS011;59316;52.964;7.102;2023-03-15T23:24:08;4.72;;;2.50;;
70757;SDS011;59316;52.964;7.102;2023-03-15T23:29:30;7.50;;;2.80;;
70757;SDS011;59316;52.964;7.102;2023-03-15T23:35:12;8.70;;;2.92;;
70757;SDS011;59316;52.964;7.102;2023-03-15T23:40:33;4.90;;;2.65;;
70757;SDS011;59316;52.964;7.102;2023-03-15T23:45:59;6.72;;;2.97;;
70757;SDS011;59316;52.964;7.102;2023-03-15T23:51:24;9.13;;;3.15;;
70757;SDS011;59316;52.964;7.102;2023-03-15T23:56:46;5.00;;;2.97;;
